createdAt,value
2022-09-10T00:00:06.985Z,3.92
2022-09-10T00:02:33.930Z,4.90
2022-09-10T00:07:46.152Z,4.63
2022-09-10T00:13:16.519Z,4.55
2022-09-10T00:15:49.233Z,4.07
2022-09-10T00:18:16.664Z,4.10
2022-09-10T00:20:43.431Z,5.00
2022-09-10T00:26:10.360Z,4.40
2022-09-10T00:28:36.955Z,5.03
2022-09-10T00:31:05.095Z,4.78
2022-09-10T00:36:21.709Z,5.22
2022-09-10T00:38:48.273Z,4.70
2022-09-10T00:41:15.200Z,4.80
2022-09-10T00:43:46.477Z,5.53
2022-09-10T00:46:15.672Z,4.82
2022-09-10T00:48:42.296Z,5.57
2022-09-10T00:51:08.855Z,4.93
2022-09-10T00:56:39.296Z,4.63
2022-09-10T00:59:08.226Z,4.45
2022-09-10T01:06:54.504Z,5.32
2022-09-10T01:09:22.097Z,5.90
2022-09-10T01:17:34.815Z,5.63
2022-09-10T01:20:12.967Z,5.97
2022-09-10T01:22:50.926Z,5.72
2022-09-10T01:25:23.314Z,6.38
2022-09-10T01:48:59.868Z,6.90
2022-09-10T01:51:32.034Z,6.78
2022-09-10T01:54:05.644Z,7.03
2022-09-10T01:56:37.324Z,7.60
2022-09-10T02:05:03.740Z,7.80
2022-09-10T02:07:32.088Z,8.35
2022-09-10T02:10:12.571Z,7.33
2022-09-10T02:15:37.964Z,9.15
2022-09-10T02:18:05.757Z,8.40
2022-09-10T02:20:33.765Z,8.68
2022-09-10T02:23:00.826Z,8.10
2022-09-10T02:25:31.854Z,8.25
2022-09-10T02:27:58.640Z,9.00
2022-09-10T02:41:28.279Z,9.07
2022-09-10T02:43:55.505Z,9.65
2022-09-10T02:46:22.759Z,9.00
2022-09-10T02:48:49.334Z,9.55
2022-09-10T02:54:09.231Z,10.35
2022-09-10T02:56:37.307Z,10.80
2022-09-10T02:59:04.042Z,11.40
2022-09-10T03:01:30.637Z,12.18
2022-09-10T03:03:58.353Z,11.20
2022-09-10T03:06:25.556Z,12.85
2022-09-10T03:08:53.105Z,12.50
2022-09-10T03:11:19.662Z,12.10
2022-09-10T03:13:47.942Z,12.50
2022-09-10T03:18:59.492Z,13.13
2022-09-10T03:21:26.070Z,16.77
2022-09-10T03:23:53.514Z,15.80
2022-09-10T03:26:20.746Z,14.68
2022-09-10T03:28:50.145Z,14.32
2022-09-10T03:31:18.092Z,14.93
2022-09-10T03:33:46.169Z,15.98
2022-09-10T03:36:15.524Z,14.23
2022-09-10T03:38:42.174Z,16.95
2022-09-10T03:43:58.424Z,16.48
2022-09-10T03:46:25.051Z,16.95
2022-09-10T03:48:55.186Z,17.10
2022-09-10T03:51:23.265Z,17.65
2022-09-10T03:56:20.929Z,17.55
2022-09-10T04:15:57.351Z,18.30
2022-09-10T04:18:26.552Z,18.67
2022-09-10T04:20:59.780Z,20.25
2022-09-10T04:23:26.337Z,18.70
2022-09-10T04:26:00.742Z,20.35
2022-09-10T04:28:27.372Z,19.35
2022-09-10T04:30:53.982Z,18.95
2022-09-10T04:33:21.901Z,19.70
2022-09-10T04:49:13.553Z,17.45
2022-09-10T04:51:40.094Z,17.85
2022-09-10T04:54:16.306Z,19.25
2022-09-10T04:56:43.272Z,20.80
2022-09-10T04:59:16.021Z,18.67
2022-09-10T05:01:42.593Z,20.10
2022-09-10T05:04:12.018Z,18.60
2022-09-10T05:06:40.004Z,20.73
2022-09-10T05:09:06.567Z,19.35
2022-09-10T05:11:33.296Z,17.88
2022-09-10T05:16:48.517Z,18.35
2022-09-10T05:19:17.932Z,16.67
2022-09-10T05:21:48.412Z,19.63
2022-09-10T05:24:15.275Z,18.38
2022-09-10T05:26:41.998Z,18.40
2022-09-10T05:29:08.625Z,19.42
2022-09-10T05:31:35.556Z,17.42
2022-09-10T05:34:02.316Z,18.42
2022-09-10T05:39:20.017Z,17.33
2022-09-10T05:41:47.966Z,16.75
2022-09-10T05:44:15.101Z,17.88
2022-09-10T05:49:30.672Z,17.38
2022-09-10T05:54:42.224Z,16.08
2022-09-10T05:57:10.123Z,15.38
2022-09-10T05:59:36.731Z,16.08
2022-09-10T06:02:03.434Z,14.80
2022-09-10T06:04:30.115Z,15.70
2022-09-10T06:06:56.654Z,15.73
2022-09-10T06:09:23.251Z,15.50
2022-09-10T06:11:49.788Z,14.85
2022-09-10T06:14:17.741Z,14.73
2022-09-10T06:22:18.394Z,15.23
2022-09-10T06:24:49.273Z,13.93
2022-09-10T06:29:57.222Z,14.48
2022-09-10T06:32:23.813Z,14.65
2022-09-10T06:34:50.349Z,16.10
2022-09-10T06:37:17.922Z,16.20
2022-09-10T06:39:48.209Z,15.30
2022-09-10T06:42:16.413Z,15.20
2022-09-10T06:44:43.212Z,15.80
2022-09-10T06:47:46.228Z,15.63
2022-09-10T06:49:58.324Z,16.10
2022-09-10T06:52:24.905Z,15.43
2022-09-10T06:54:52.367Z,15.07
2022-09-10T06:57:19.543Z,15.25
2022-09-10T06:59:46.137Z,13.32
2022-09-10T07:02:15.343Z,16.90
2022-09-10T07:04:42.207Z,14.98
2022-09-10T07:07:09.659Z,16.52
2022-09-10T07:15:06.729Z,14.43
2022-09-10T07:17:36.319Z,13.70
2022-09-10T07:28:59.680Z,13.95
2022-09-10T07:31:29.037Z,11.82
2022-09-10T07:36:45.595Z,13.13
2022-09-10T07:39:12.193Z,9.65
2022-09-10T07:44:13.885Z,9.20
2022-09-10T07:46:41.225Z,10.68
2022-09-10T07:49:09.083Z,9.82
2022-09-10T07:51:35.690Z,10.25
2022-09-10T07:54:03.812Z,9.68
2022-09-10T07:56:31.998Z,9.48
2022-09-10T07:58:58.682Z,9.07
2022-09-10T08:01:25.491Z,8.35
2022-09-10T08:03:56.499Z,7.13
2022-09-10T08:06:29.364Z,6.20
2022-09-10T08:08:56.089Z,6.60
2022-09-10T08:50:13.241Z,2.67
2022-09-10T08:52:41.575Z,2.80
2022-09-10T08:55:14.024Z,2.92
2022-09-10T09:38:57.599Z,2.92
2022-09-10T09:41:26.115Z,3.70
2022-09-10T09:43:54.299Z,3.78
2022-09-10T09:46:21.186Z,2.88
2022-09-10T09:48:48.712Z,2.88
2022-09-10T09:51:21.007Z,3.20
2022-09-10T09:53:56.885Z,3.58
2022-09-10T09:56:37.305Z,3.35
2022-09-10T09:59:09.980Z,2.63
2022-09-10T10:01:40.588Z,3.47
2022-09-10T10:06:56.573Z,3.00
2022-09-10T10:09:25.684Z,2.40
2022-09-10T10:11:55.208Z,3.38
2022-09-10T10:14:38.190Z,2.78
2022-09-10T10:17:19.678Z,3.70
2022-09-10T10:19:56.878Z,3.70
2022-09-10T10:22:25.205Z,3.17
2022-09-10T10:27:56.968Z,3.08
2022-09-10T10:38:31.405Z,2.97
2022-09-10T10:41:17.386Z,2.50
2022-09-10T10:43:51.174Z,3.70
2022-09-10T10:46:20.492Z,3.42
2022-09-10T10:48:57.821Z,3.40
2022-09-10T10:54:32.613Z,3.58
2022-09-10T10:57:24.499Z,3.30
2022-09-10T10:59:55.650Z,3.60
2022-09-10T11:02:25.338Z,3.22
2022-09-10T11:04:53.254Z,3.45
2022-09-10T11:07:22.355Z,2.88
2022-09-10T11:09:52.069Z,3.35
2022-09-10T11:12:20.473Z,3.60
2022-09-10T11:14:48.819Z,3.20
2022-09-10T11:17:19.870Z,3.45
2022-09-10T11:19:56.483Z,3.35
2022-09-10T11:22:34.554Z,4.35
2022-09-10T11:25:03.191Z,3.25
2022-09-10T11:27:32.293Z,3.35
2022-09-10T11:30:03.764Z,2.83
2022-09-10T11:32:35.190Z,2.80
2022-09-10T11:35:06.044Z,3.22
2022-09-10T11:37:38.986Z,3.53
2022-09-10T11:40:12.381Z,3.38
2022-09-10T11:42:40.279Z,3.13
2022-09-10T11:45:13.813Z,3.33
2022-09-10T11:50:15.575Z,3.90
2022-09-10T11:55:22.175Z,3.30
2022-09-10T11:57:56.532Z,3.92
2022-09-10T12:00:25.387Z,3.15
2022-09-10T12:03:10.072Z,3.67
2022-09-10T12:05:43.648Z,2.60
2022-09-10T12:08:17.678Z,3.33
2022-09-10T12:10:47.714Z,2.95
2022-09-10T12:13:17.575Z,3.17
2022-09-10T12:15:49.819Z,2.95
2022-09-10T12:18:18.645Z,2.83
2022-09-10T12:20:49.487Z,3.45
2022-09-10T12:23:17.030Z,2.78
2022-09-10T12:25:43.782Z,2.95
2022-09-10T12:28:41.849Z,2.53
2022-09-10T12:31:08.869Z,2.75
2022-09-10T12:33:59.672Z,3.28
2022-09-10T12:36:44.981Z,3.25
2022-09-10T12:39:23.565Z,4.22
2022-09-10T12:41:58.076Z,3.60
2022-09-10T12:44:44.237Z,3.38
2022-09-10T12:47:25.607Z,3.78
2022-09-10T12:49:53.966Z,3.08
2022-09-10T12:52:24.411Z,3.15
2022-09-10T12:54:57.167Z,2.95
2022-09-10T12:57:34.139Z,3.43
2022-09-10T13:02:54.954Z,3.60
2022-09-10T13:05:24.678Z,3.42
2022-09-10T13:07:57.321Z,3.65
2022-09-10T13:13:05.015Z,3.85
2022-09-10T13:15:35.366Z,3.90
2022-09-10T13:18:21.853Z,4.80
2022-09-10T13:20:48.526Z,4.40
2022-09-10T13:23:22.177Z,4.75
2022-09-10T13:28:33.974Z,4.65
2022-09-10T13:31:03.684Z,5.22
2022-09-10T13:33:31.089Z,4.65
2022-09-10T13:36:10.597Z,4.88
2022-09-10T13:39:04.900Z,4.28
2022-09-10T13:44:08.558Z,4.60
2022-09-10T13:46:37.942Z,4.70
2022-09-10T13:49:07.138Z,4.25
2022-09-10T13:51:36.783Z,3.80
2022-09-10T13:54:07.456Z,3.97
2022-09-10T13:56:34.980Z,5.10
2022-09-10T13:59:03.142Z,3.80
2022-09-10T14:01:49.873Z,4.50
2022-09-10T14:04:23.413Z,3.72
2022-09-10T14:06:50.353Z,3.72
2022-09-10T14:09:17.265Z,3.70
2022-09-10T14:11:44.437Z,3.90
2022-09-10T14:14:12.939Z,3.67
2022-09-10T14:16:40.952Z,3.78
2022-09-10T14:19:12.671Z,4.70
2022-09-10T14:21:39.261Z,4.18
2022-09-10T14:24:05.911Z,4.22
2022-09-10T14:26:33.622Z,4.43
2022-09-10T14:29:01.248Z,4.63
2022-09-10T14:31:30.073Z,5.30
2022-09-10T14:33:57.236Z,5.22
2022-09-10T14:36:33.508Z,5.40
2022-09-10T14:39:02.984Z,5.55
2022-09-10T14:41:30.715Z,5.50
2022-09-10T14:44:14.141Z,5.05
2022-09-10T14:46:49.204Z,4.97
2022-09-10T14:49:17.287Z,6.13
2022-09-10T14:51:45.372Z,5.07
2022-09-10T14:54:12.905Z,5.07
2022-09-10T14:56:40.660Z,5.20
2022-09-10T14:59:13.161Z,4.75
2022-09-10T15:01:40.622Z,5.78
2022-09-10T15:04:08.931Z,5.25
2022-09-10T15:06:35.840Z,4.55
2022-09-10T15:09:03.795Z,4.07
2022-09-10T15:11:30.376Z,4.03
2022-09-10T15:13:59.262Z,4.13
2022-09-10T15:16:25.858Z,4.20
2022-09-10T15:18:52.516Z,3.95
2022-09-10T15:21:19.431Z,3.72
2022-09-10T15:23:48.383Z,4.13
2022-09-10T15:26:16.448Z,4.35
2022-09-10T15:28:42.978Z,4.05
2022-09-10T15:31:10.490Z,3.88
2022-09-10T15:33:37.185Z,4.45
2022-09-10T15:36:03.967Z,4.05
2022-09-10T15:38:31.529Z,4.45
2022-09-10T15:41:06.346Z,4.32
2022-09-10T15:43:36.074Z,4.28
2022-09-10T15:46:02.712Z,3.80
2022-09-10T15:48:30.745Z,4.15
2022-09-10T15:51:00.420Z,4.00
2022-09-10T15:53:27.087Z,4.25
2022-09-10T15:55:53.730Z,4.85
2022-09-10T15:58:20.260Z,5.13
2022-09-10T16:00:48.172Z,5.20
2022-09-10T16:03:14.695Z,4.65
2022-09-10T16:05:41.656Z,4.57
2022-09-10T16:08:08.398Z,4.28
2022-09-10T16:10:38.299Z,4.60
2022-09-10T16:13:04.833Z,4.72
2022-09-10T16:15:31.775Z,4.80
2022-09-10T16:18:00.518Z,4.85
2022-09-10T16:20:27.214Z,4.38
2022-09-10T16:22:54.444Z,4.53
2022-09-10T16:28:06.017Z,4.68
2022-09-10T16:30:41.450Z,3.75
2022-09-10T16:33:10.040Z,3.85
2022-09-10T16:35:36.664Z,3.95
2022-09-10T16:43:44.667Z,4.00
2022-09-10T16:46:12.130Z,3.75
2022-09-10T16:48:40.874Z,3.92
2022-09-10T16:51:08.262Z,3.60
2022-09-10T16:53:44.342Z,3.75
2022-09-10T16:56:12.742Z,3.35
2022-09-10T16:58:40.180Z,3.20
2022-09-10T17:01:09.161Z,3.97
2022-09-10T17:03:39.357Z,3.50
2022-09-10T17:06:12.969Z,3.55
2022-09-10T17:11:08.766Z,3.47
2022-09-10T17:13:36.087Z,3.83
2022-09-10T17:16:12.522Z,3.85
2022-09-10T17:18:39.251Z,3.92
2022-09-10T17:21:07.260Z,3.65
2022-09-10T17:23:33.784Z,4.15
2022-09-10T17:26:03.761Z,4.18
2022-09-10T17:28:30.511Z,4.35
2022-09-10T17:30:58.088Z,4.18
2022-09-10T17:33:27.382Z,3.83
2022-09-10T17:35:55.509Z,4.45
2022-09-10T17:38:24.928Z,3.92
2022-09-10T17:40:55.440Z,4.88
2022-09-10T17:43:26.764Z,3.90
2022-09-10T17:45:53.931Z,4.38
2022-09-10T17:48:23.282Z,3.75
2022-09-10T17:50:51.735Z,4.20
2022-09-10T17:53:19.043Z,3.78
2022-09-10T17:55:46.937Z,4.90
2022-09-10T17:58:16.504Z,4.50
2022-09-10T18:00:43.714Z,5.20
2022-09-10T18:03:10.896Z,4.57
2022-09-10T18:05:37.469Z,4.93
2022-09-10T18:08:04.320Z,4.72
2022-09-10T18:10:31.162Z,4.85
2022-09-10T18:13:00.464Z,4.88
2022-09-10T18:15:27.727Z,5.20
2022-09-10T18:17:54.555Z,4.97
2022-09-10T18:20:22.865Z,5.18
2022-09-10T18:22:49.444Z,5.97
2022-09-10T18:25:16.085Z,4.97
2022-09-10T18:27:43.293Z,5.75
2022-09-10T18:30:12.118Z,5.97
2022-09-10T18:32:38.624Z,5.47
2022-09-10T18:35:06.265Z,6.13
2022-09-10T18:37:33.228Z,6.13
2022-09-10T18:40:00.284Z,5.60
2022-09-10T18:42:27.371Z,5.88
2022-09-10T18:44:53.977Z,6.30
2022-09-10T18:47:41.368Z,5.63
2022-09-10T18:50:08.881Z,5.50
2022-09-10T18:52:35.906Z,5.47
2022-09-10T18:55:02.546Z,5.07
2022-09-10T18:57:29.734Z,5.15
2022-09-10T18:59:56.468Z,5.93
2022-09-10T19:02:24.448Z,5.30
2022-09-10T19:05:10.270Z,5.50
2022-09-10T19:07:37.761Z,5.97
2022-09-10T19:10:06.958Z,5.60
2022-09-10T19:12:33.796Z,4.60
2022-09-10T19:15:00.511Z,5.95
2022-09-10T19:17:28.431Z,5.70
2022-09-10T19:19:54.992Z,5.70
2022-09-10T19:22:21.476Z,6.03
2022-09-10T19:24:55.030Z,4.80
2022-09-10T19:27:22.245Z,4.88
2022-09-10T19:29:49.857Z,5.40
2022-09-10T19:32:17.205Z,5.25
2022-09-10T19:34:45.374Z,4.90
2022-09-10T19:37:12.036Z,5.65
2022-09-10T19:39:38.594Z,4.82
2022-09-10T19:42:06.824Z,4.68
2022-09-10T19:44:33.789Z,5.18
2022-09-10T19:47:00.399Z,5.32
2022-09-10T19:49:26.924Z,5.72
2022-09-10T19:51:54.915Z,5.57
2022-09-10T19:54:22.783Z,6.28
2022-09-10T19:56:49.696Z,5.63
2022-09-10T19:59:17.011Z,5.85
2022-09-10T20:01:46.900Z,6.60
2022-09-10T20:04:14.291Z,6.38
2022-09-10T20:06:42.453Z,6.57
2022-09-10T20:09:10.380Z,7.60
2022-09-10T20:11:37.103Z,7.40
2022-09-10T20:14:04.592Z,7.00
2022-09-10T20:16:31.418Z,6.72
2022-09-10T20:18:58.005Z,7.20
2022-09-10T20:21:25.614Z,7.28
2022-09-10T20:23:52.874Z,6.32
2022-09-10T20:26:22.679Z,7.05
2022-09-10T20:28:50.634Z,6.30
2022-09-10T20:31:17.408Z,6.75
2022-09-10T20:33:44.230Z,6.75
2022-09-10T20:36:12.294Z,6.35
2022-09-10T20:38:39.105Z,6.72
2022-09-10T20:41:06.051Z,6.93
2022-09-10T20:43:34.333Z,6.90
2022-09-10T20:46:02.855Z,6.65
2022-09-10T20:48:30.812Z,6.50
2022-09-10T20:50:58.690Z,6.43
2022-09-10T20:53:25.243Z,6.55
2022-09-10T20:55:51.827Z,7.07
2022-09-10T20:58:18.481Z,6.93
2022-09-10T21:00:46.634Z,6.95
2022-09-10T21:03:13.196Z,6.32
2022-09-10T21:05:40.055Z,7.32
2022-09-10T21:08:06.663Z,7.10
2022-09-10T21:10:34.715Z,6.78
2022-09-10T21:13:02.236Z,6.05
2022-09-10T21:15:30.080Z,6.75
2022-09-10T21:17:58.419Z,6.78
2022-09-10T21:20:25.046Z,6.45
2022-09-10T21:22:52.125Z,6.60
2022-09-10T21:25:19.235Z,6.30
2022-09-10T21:27:46.932Z,6.32
2022-09-10T21:30:13.477Z,7.10
2022-09-10T21:32:40.599Z,6.78
2022-09-10T21:35:09.023Z,6.57
2022-09-10T21:37:35.711Z,7.38
2022-09-10T21:40:02.550Z,6.72
2022-09-10T21:42:29.124Z,6.05
2022-09-10T21:44:55.640Z,6.22
2022-09-10T21:47:22.209Z,6.22
2022-09-10T21:49:48.826Z,6.65
2022-09-10T21:52:16.758Z,6.32
2022-09-10T21:54:43.308Z,5.53
2022-09-10T21:57:11.756Z,6.70
2022-09-10T21:59:38.417Z,6.00
2022-09-10T22:02:05.169Z,6.70
2022-09-10T22:04:31.978Z,6.50
2022-09-10T22:06:58.729Z,7.18
2022-09-10T22:09:26.633Z,6.75
2022-09-10T22:11:54.350Z,6.13
2022-09-10T22:14:22.169Z,6.35
2022-09-10T22:16:48.858Z,6.70
2022-09-10T22:19:18.068Z,7.13
2022-09-10T22:21:44.668Z,5.63
2022-09-10T22:24:12.459Z,7.45
2022-09-10T22:26:42.436Z,7.72
2022-09-10T22:29:09.545Z,7.38
2022-09-10T22:31:36.469Z,7.10
2022-09-10T22:34:04.662Z,5.65
2022-09-10T22:36:32.361Z,6.57
2022-09-10T22:38:59.541Z,7.13
2022-09-10T22:41:27.183Z,7.10
2022-09-10T22:43:55.130Z,6.65
2022-09-10T22:46:24.026Z,7.03
2022-09-10T22:48:50.793Z,6.65
2022-09-10T22:51:18.170Z,7.05
2022-09-10T22:53:45.244Z,6.90
2022-09-10T22:56:13.524Z,6.40
2022-09-10T22:58:40.485Z,7.38
2022-09-10T23:01:09.872Z,7.43
2022-09-10T23:03:36.651Z,6.72
2022-09-10T23:06:06.129Z,7.32
2022-09-10T23:08:33.410Z,7.22
2022-09-10T23:11:07.823Z,7.90
2022-09-10T23:13:34.669Z,7.03
2022-09-10T23:16:01.346Z,7.20
2022-09-10T23:18:29.257Z,8.13
2022-09-10T23:20:55.763Z,8.15
2022-09-10T23:23:22.306Z,8.38
2022-09-10T23:25:48.978Z,8.20
2022-09-10T23:28:15.506Z,8.85
2022-09-10T23:30:42.623Z,8.15
2022-09-10T23:33:09.508Z,8.35
2022-09-10T23:35:37.437Z,8.05
2022-09-10T23:38:03.973Z,7.90
2022-09-10T23:40:34.093Z,7.82
2022-09-10T23:43:00.840Z,7.70
2022-09-10T23:45:27.359Z,7.95
2022-09-10T23:47:53.946Z,7.75
2022-09-10T23:50:20.447Z,8.80
2022-09-10T23:52:48.386Z,8.02
2022-09-10T23:55:14.913Z,8.18
2022-09-10T23:57:41.462Z,8.27
